Terminal Aerodrome Forecast
Issued by NWS

Home | Current Version | Previous Version | Text Only | Print | Product List | Glossary On
Versions: 1 2 3 4 5 6 7 8 9 10 11 12 13 14 15 16 17 18 19 20 21 22 23 24 25 26 27 28 29 30 31 32 33 34 35 36 37 38 39 40 41 42 43 44 45 46 47 48
000
FTUS45 KBOU 141741
TAFAPA
TAF
KAPA 141741Z 1418/1518 33011KT P6SM SCT110 BKN220
      TEMPO 1419/1420 28012G22KT
     FM142000 32017G26KT P6SM FEW090 SCT120 BKN200
     FM150200 27012KT P6SM SCT130 BKN200
     FM150500 24008KT P6SM SCT130 BKN220
     FM151000 18007KT P6SM FEW140 SCT220=

USA.gov is the U.S. government's official web portal to all federal, state and local government web resources and services.